createdAt,value
2023-02-02T00:01:38.202Z,98283.45
2023-02-02T00:06:46.462Z,98287.93
2023-02-02T00:11:54.994Z,98288.58
2023-02-02T00:17:02.470Z,98290.63
2023-02-02T00:22:10.622Z,98288.84
2023-02-02T00:27:18.914Z,98283.64
2023-02-02T00:32:27.307Z,98278.73
2023-02-02T00:37:35.740Z,98277.85
2023-02-02T00:42:49.670Z,98275.75
2023-02-02T00:47:57.378Z,98274.54
2023-02-02T00:53:06.253Z,98270.18
2023-02-02T00:58:14.859Z,98270.88
2023-02-02T01:03:22.799Z,98267.36
2023-02-02T01:08:31.108Z,98269.48
2023-02-02T01:13:39.812Z,98272.25
2023-02-02T01:18:48.133Z,98275.37
2023-02-02T01:23:56.383Z,98276.60
2023-02-02T01:29:04.411Z,98273.77
2023-02-02T01:34:12.805Z,98278.63
2023-02-02T01:39:24.177Z,98280.85
2023-02-02T01:45:12.151Z,98276.69
2023-02-02T01:50:23.700Z,98276.85
2023-02-02T01:55:33.316Z,98277.15
2023-02-02T02:00:46.945Z,98276.63
2023-02-02T02:06:00.582Z,98280.28
2023-02-02T02:11:09.155Z,98279.20
2023-02-02T02:16:22.898Z,98278.48
2023-02-02T02:22:04.921Z,98279.35
2023-02-02T02:27:41.165Z,98276.55
2023-02-02T02:32:58.566Z,98274.29
2023-02-02T02:38:11.511Z,98281.53
2023-02-02T02:43:23.150Z,98276.34
2023-02-02T02:48:32.555Z,98273.56
2023-02-02T02:53:40.687Z,98277.39
2023-02-02T02:58:55.772Z,98275.13
2023-02-02T03:04:12.767Z,98271.83
2023-02-02T03:09:24.886Z,98276.33
2023-02-02T03:14:36.520Z,98276.80
2023-02-02T03:19:44.559Z,98273.68
2023-02-02T03:24:53.040Z,98268.98
2023-02-02T03:30:02.413Z,98267.04
2023-02-02T03:35:11.984Z,98270.15
2023-02-02T03:40:21.101Z,98270.89
2023-02-02T03:45:31.218Z,98268.86
2023-02-02T03:50:40.713Z,98269.61
2023-02-02T03:55:49.199Z,98267.10
2023-02-02T04:01:01.621Z,98270.66
2023-02-02T04:06:10.532Z,98275.78
2023-02-02T04:11:18.161Z,98275.67
2023-02-02T04:16:25.595Z,98272.14
2023-02-02T04:21:32.808Z,98271.17
2023-02-02T04:26:40.100Z,98278.92
2023-02-02T04:31:47.480Z,98279.38
2023-02-02T04:36:56.457Z,98279.58
2023-02-02T04:42:04.714Z,98279.92
2023-02-02T04:47:13.040Z,98280.60
2023-02-02T04:52:21.705Z,98277.95
2023-02-02T04:57:29.951Z,98282.10
2023-02-02T05:02:39.461Z,98284.88
2023-02-02T05:07:48.065Z,98290.23
2023-02-02T05:12:58.928Z,98287.77
2023-02-02T05:18:07.257Z,98290.17
2023-02-02T05:23:15.507Z,98293.77
2023-02-02T05:28:24.960Z,98302.27
2023-02-02T05:33:33.543Z,98309.52
2023-02-02T05:38:41.647Z,98313.84
2023-02-02T05:43:49.773Z,98319.00
2023-02-02T05:48:59.298Z,98317.04
2023-02-02T05:54:07.494Z,98320.29
2023-02-02T05:59:17.915Z,98322.67
2023-02-02T06:04:26.223Z,98330.29
2023-02-02T06:09:34.558Z,98334.55
2023-02-02T06:14:42.865Z,98339.66
2023-02-02T06:19:51.227Z,98341.86
2023-02-02T06:24:59.541Z,98340.72
2023-02-02T06:30:07.468Z,98338.84
2023-02-02T06:35:15.395Z,98336.19
2023-02-02T06:40:23.884Z,98338.92
2023-02-02T06:45:33.303Z,98342.89
2023-02-02T06:50:41.865Z,98343.36
2023-02-02T06:55:56.973Z,98350.06
2023-02-02T07:01:07.754Z,98354.88
2023-02-02T07:06:21.316Z,98358.28
2023-02-02T07:11:29.028Z,98362.54
2023-02-02T07:16:37.602Z,98372.71
2023-02-02T07:21:44.927Z,98370.39
2023-02-02T07:26:53.032Z,98373.95
2023-02-02T07:32:01.265Z,98379.43
2023-02-02T07:37:09.437Z,98380.09
2023-02-02T07:42:17.602Z,98386.13
2023-02-02T07:47:25.965Z,98391.48
2023-02-02T07:52:37.351Z,98395.90
2023-02-02T07:57:46.601Z,98404.88
2023-02-02T08:02:55.116Z,98416.11
2023-02-02T08:08:04.452Z,98423.68
2023-02-02T08:13:14.222Z,98430.40
2023-02-02T08:18:22.973Z,98432.80
2023-02-02T08:23:32.349Z,98437.08
2023-02-02T08:28:41.253Z,98439.98
2023-02-02T08:33:50.295Z,98447.25
2023-02-02T08:39:03.080Z,98456.11
2023-02-02T08:44:15.191Z,98460.29
2023-02-02T08:49:23.908Z,98466.31
2023-02-02T08:54:32.307Z,98470.25
2023-02-02T08:59:40.614Z,98476.95
2023-02-02T09:04:49.653Z,98485.20
2023-02-02T09:09:58.747Z,98493.44
2023-02-02T09:15:08.664Z,98496.33
2023-02-02T09:20:19.028Z,98500.23
2023-02-02T09:25:29.001Z,98510.05
2023-02-02T09:30:37.924Z,98523.52
2023-02-02T09:35:47.019Z,98534.73
2023-02-02T09:40:55.371Z,98543.16
2023-02-02T09:46:12.890Z,98543.72
2023-02-02T09:51:25.595Z,98549.36
2023-02-02T09:56:41.677Z,98559.09
2023-02-02T10:01:54.302Z,98568.74
2023-02-02T10:07:10.530Z,98572.26
2023-02-02T10:12:30.297Z,98582.81
2023-02-02T10:17:48.209Z,98594.66
2023-02-02T10:23:01.338Z,98600.64
2023-02-02T10:28:19.600Z,98606.09
2023-02-02T10:33:37.695Z,98615.73
2023-02-02T10:38:55.789Z,98621.33
2023-02-02T10:44:16.029Z,98626.96
2023-02-02T10:49:32.771Z,98634.95
2023-02-02T10:54:57.161Z,98642.56
2023-02-02T11:00:16.898Z,98650.00
2023-02-02T11:05:45.343Z,98658.29
2023-02-02T11:10:57.672Z,98671.90
2023-02-02T11:16:41.609Z,98680.48
2023-02-02T11:21:54.899Z,98690.46
2023-02-02T11:27:06.076Z,98696.61
2023-02-02T11:32:33.371Z,98709.95
2023-02-02T11:37:54.582Z,98726.30
2023-02-02T11:43:05.786Z,98730.98
2023-02-02T11:48:19.702Z,98741.36
2023-02-02T11:53:33.287Z,98749.70
2023-02-02T11:58:51.692Z,98760.77
2023-02-02T12:04:01.954Z,98768.86
2023-02-02T12:09:16.385Z,98772.27
2023-02-02T12:14:35.059Z,98781.92
2023-02-02T12:20:05.162Z,98790.98
2023-02-02T12:25:38.332Z,98798.12
2023-02-02T12:30:54.483Z,98805.61
2023-02-02T12:36:34.601Z,98809.43
2023-02-02T12:42:02.074Z,98813.65
2023-02-02T12:47:21.807Z,98821.75
2023-02-02T12:52:55.273Z,98832.15
2023-02-02T12:58:14.561Z,98847.94
2023-02-02T13:03:43.335Z,98861.12
2023-02-02T13:08:58.789Z,98874.84
2023-02-02T13:14:14.201Z,98878.20
2023-02-02T13:19:31.131Z,98905.11
2023-02-02T13:24:43.086Z,98913.02
2023-02-02T13:29:54.140Z,98920.68
2023-02-02T13:35:07.172Z,98929.62
2023-02-02T13:40:27.310Z,98938.89
2023-02-02T13:45:53.626Z,98951.27
2023-02-02T13:51:24.211Z,98967.13
2023-02-02T13:56:47.742Z,98976.33
2023-02-02T14:01:59.957Z,98987.83
2023-02-02T14:12:17.288Z,99010.85
2023-02-02T14:17:55.570Z,99016.47
2023-02-02T14:23:04.515Z,99028.88
2023-02-02T14:28:37.011Z,99046.87
2023-02-02T14:33:48.117Z,99056.54
2023-02-02T14:39:22.128Z,99064.44
2023-02-02T14:44:31.399Z,99074.45
2023-02-02T14:49:40.461Z,99081.86
2023-02-02T14:54:53.691Z,99091.84
2023-02-02T15:00:02.293Z,99101.86
2023-02-02T15:05:47.214Z,99115.15
2023-02-02T15:11:32.628Z,99132.41
2023-02-02T15:16:43.965Z,99150.91
2023-02-02T15:21:54.954Z,99170.94
2023-02-02T15:27:09.504Z,99184.39
2023-02-02T15:32:22.193Z,99195.07
2023-02-02T15:37:40.757Z,99210.77
2023-02-02T15:42:55.219Z,99225.56
2023-02-02T15:48:10.559Z,99239.15
2023-02-02T15:53:23.372Z,99250.15
2023-02-02T15:58:34.661Z,99264.40
2023-02-02T16:03:52.371Z,99274.18
2023-02-02T16:09:04.054Z,99291.25
2023-02-02T16:14:19.560Z,99312.48
2023-02-02T16:19:30.770Z,99330.77
2023-02-02T16:24:41.915Z,99342.08
2023-02-02T16:29:51.058Z,99357.05
2023-02-02T16:35:00.657Z,99374.80
2023-02-02T16:40:27.552Z,99387.17
2023-02-02T16:45:51.567Z,99400.25
2023-02-02T16:51:11.690Z,99408.45
2023-02-02T16:56:30.084Z,99419.79
2023-02-02T17:01:41.975Z,99434.41
2023-02-02T17:06:53.189Z,99450.42
2023-02-02T17:12:14.352Z,99461.39
2023-02-02T17:17:27.053Z,99474.98
2023-02-02T17:22:39.689Z,99487.73
2023-02-02T17:27:47.482Z,99499.75
2023-02-02T17:32:55.719Z,99502.74
2023-02-02T17:38:05.067Z,99521.90
2023-02-02T17:43:16.783Z,99530.65
2023-02-02T17:48:25.564Z,99545.13
2023-02-02T17:53:35.189Z,99561.69
2023-02-02T17:58:44.028Z,99567.15
2023-02-02T18:03:52.390Z,99576.92
2023-02-02T18:09:00.612Z,99584.63
2023-02-02T18:14:09.401Z,99596.48
2023-02-02T18:19:17.644Z,99611.46
2023-02-02T18:24:26.230Z,99619.16
2023-02-02T18:29:35.031Z,99623.04
2023-02-02T18:34:43.938Z,99625.67
2023-02-02T18:39:52.316Z,99634.41
2023-02-02T18:45:00.859Z,99642.10
2023-02-02T18:50:10.240Z,99653.42
2023-02-02T18:55:19.022Z,99668.22
2023-02-02T19:00:27.959Z,99679.20
2023-02-02T19:05:57.231Z,99684.61
2023-02-02T19:11:23.681Z,99697.66
2023-02-02T19:16:35.687Z,99706.38
2023-02-02T19:21:45.094Z,99711.97
2023-02-02T19:26:54.388Z,99718.58
2023-02-02T19:32:08.052Z,99728.30
2023-02-02T19:37:26.145Z,99738.19
2023-02-02T19:42:34.476Z,99751.38
2023-02-02T19:47:45.008Z,99769.06
2023-02-02T19:52:54.004Z,99774.96
2023-02-02T19:58:15.673Z,99779.46
2023-02-02T20:03:25.191Z,99786.73
2023-02-02T20:08:40.488Z,99790.38
2023-02-02T20:13:50.057Z,99797.84
2023-02-02T20:18:59.979Z,99814.14
2023-02-02T20:24:16.013Z,99826.09
2023-02-02T20:29:27.689Z,99836.50
2023-02-02T20:34:38.039Z,99837.55
2023-02-02T20:39:50.375Z,99840.84
2023-02-02T20:44:58.787Z,99846.40
2023-02-02T20:50:08.301Z,99851.09
2023-02-02T20:55:17.386Z,99855.60
2023-02-02T21:00:28.069Z,99849.36
2023-02-02T21:05:37.616Z,99855.63
2023-02-02T21:10:46.125Z,99865.17
2023-02-02T21:15:55.410Z,99870.90
2023-02-02T21:21:04.130Z,99877.16
2023-02-02T21:26:13.408Z,99876.30
2023-02-02T21:31:22.124Z,99878.39
2023-02-02T21:36:37.056Z,99886.55
2023-02-02T21:41:45.508Z,99894.18
2023-02-02T21:46:55.386Z,99893.15
2023-02-02T21:52:14.984Z,99896.45
2023-02-02T21:57:37.938Z,99903.38
2023-02-02T22:02:50.727Z,99906.86
2023-02-02T22:08:01.178Z,99911.55
2023-02-02T22:13:18.306Z,99921.42
2023-02-02T22:18:28.753Z,99926.27
2023-02-02T22:23:36.951Z,99935.98
2023-02-02T22:28:45.203Z,99937.01
2023-02-02T22:33:53.075Z,99939.27
2023-02-02T22:39:01.431Z,99954.01
2023-02-02T22:44:10.103Z,99962.50
2023-02-02T22:49:18.368Z,99976.70
2023-02-02T22:54:25.890Z,99987.45
2023-02-02T22:59:36.889Z,99987.27
2023-02-02T23:04:44.358Z,99995.24
2023-02-02T23:09:51.711Z,100007.20
2023-02-02T23:14:59.231Z,100010.84
2023-02-02T23:20:09.633Z,100011.02
2023-02-02T23:25:19.999Z,100012.05
2023-02-02T23:30:28.884Z,100012.73
2023-02-02T23:35:37.120Z,100016.38
2023-02-02T23:40:46.135Z,100020.88
2023-02-02T23:45:54.524Z,100020.17
2023-02-02T23:51:03.775Z,100022.78
2023-02-02T23:56:12.667Z,100034.39
